createdAt,value
2023-05-03T00:03:33.415Z,7.73
2023-05-03T00:07:02.460Z,7.62
2023-05-03T00:10:34.694Z,7.54
2023-05-03T00:14:02.462Z,7.46
2023-05-03T00:17:33.472Z,7.34
2023-05-03T00:21:01.027Z,7.25
2023-05-03T00:24:28.679Z,7.16
2023-05-03T00:27:56.699Z,7.09
2023-05-03T00:31:23.592Z,7.01
2023-05-03T00:34:59.912Z,6.93
2023-05-03T00:38:27.828Z,6.86
2023-05-03T00:47:15.568Z,6.62
2023-05-03T00:50:42.873Z,6.54
2023-05-03T00:54:11.420Z,6.46
2023-05-03T00:57:45.392Z,6.38
2023-05-03T01:01:13.880Z,6.33
2023-05-03T01:04:45.533Z,6.25
2023-05-03T01:08:22.529Z,6.16
2023-05-03T01:11:56.439Z,6.09
2023-05-03T01:15:35.372Z,6.03
2023-05-03T01:19:06.566Z,5.95
2023-05-03T01:22:45.660Z,5.88
2023-05-03T01:26:26.273Z,5.84
2023-05-03T01:29:55.888Z,5.80
2023-05-03T01:33:34.542Z,5.76
2023-05-03T01:37:06.749Z,5.75
2023-05-03T01:40:37.866Z,5.76
2023-05-03T01:44:07.116Z,5.78
2023-05-03T01:47:41.443Z,5.77
2023-05-03T01:51:08.474Z,5.76
2023-05-03T01:54:35.847Z,5.74
2023-05-03T01:58:04.780Z,5.69
2023-05-03T02:01:31.935Z,5.63
2023-05-03T02:04:58.960Z,5.56
2023-05-03T02:08:25.701Z,5.49
2023-05-03T02:11:53.712Z,5.44
2023-05-03T02:15:21.949Z,5.35
2023-05-03T02:18:48.737Z,5.27
2023-05-03T02:22:15.668Z,5.20
2023-05-03T02:25:42.450Z,5.15
2023-05-03T02:29:10.234Z,5.11
2023-05-03T02:32:37.114Z,5.06
2023-05-03T02:36:05.089Z,4.99
2023-05-03T02:39:34.059Z,4.92
2023-05-03T02:43:02.095Z,4.86
2023-05-03T02:46:29.261Z,4.80
2023-05-03T02:49:56.597Z,4.73
2023-05-03T02:53:24.528Z,4.69
2023-05-03T02:56:53.388Z,4.63
2023-05-03T03:00:21.902Z,4.60
2023-05-03T03:03:49.312Z,4.56
2023-05-03T03:07:16.369Z,4.51
2023-05-03T03:10:43.332Z,4.48
2023-05-03T03:14:11.453Z,4.47
2023-05-03T03:17:39.669Z,4.47
2023-05-03T03:21:07.804Z,4.47
2023-05-03T03:24:35.819Z,4.50
2023-05-03T03:28:04.251Z,4.56
2023-05-03T03:31:32.236Z,4.60
2023-05-03T03:34:59.683Z,4.64
2023-05-03T03:38:28.682Z,4.69
2023-05-03T03:42:03.230Z,4.71
2023-05-03T03:45:31.880Z,4.72
2023-05-03T03:48:59.509Z,4.70
2023-05-03T03:52:28.890Z,4.69
2023-05-03T03:55:57.873Z,4.68
2023-05-03T03:59:26.697Z,4.66
2023-05-03T04:02:54.737Z,4.64
2023-05-03T04:06:21.856Z,4.65
2023-05-03T04:09:50.072Z,4.66
2023-05-03T04:13:18.123Z,4.68
2023-05-03T04:16:46.689Z,4.71
2023-05-03T04:20:15.594Z,4.72
2023-05-03T04:23:44.837Z,4.79
2023-05-03T04:27:15.076Z,4.86
2023-05-03T04:30:43.739Z,4.93
2023-05-03T04:34:15.187Z,5.01
2023-05-03T04:37:44.273Z,5.10
2023-05-03T04:41:14.819Z,5.21
2023-05-03T04:44:44.748Z,5.32
2023-05-03T04:48:12.760Z,5.46
2023-05-03T04:51:40.827Z,5.61
2023-05-03T04:55:09.525Z,5.77
2023-05-03T04:58:38.163Z,5.95
2023-05-03T05:02:05.561Z,6.15
2023-05-03T05:05:32.329Z,6.34
2023-05-03T05:09:00.197Z,6.54
2023-05-03T05:12:27.002Z,6.70
2023-05-03T05:15:53.916Z,6.83
2023-05-03T05:19:21.043Z,6.95
2023-05-03T05:22:48.266Z,7.06
2023-05-03T05:26:15.671Z,7.11
2023-05-03T05:29:42.377Z,7.19
2023-05-03T05:33:09.823Z,7.27
2023-05-03T05:36:38.181Z,7.37
2023-05-03T05:40:08.058Z,7.45
2023-05-03T05:43:42.318Z,7.54
2023-05-03T05:47:09.931Z,7.61
2023-05-03T05:50:37.416Z,7.65
2023-05-03T05:54:08.562Z,7.75
2023-05-03T05:57:35.614Z,7.86
2023-05-03T06:01:03.949Z,7.97
2023-05-03T06:04:33.661Z,8.08
2023-05-03T06:08:05.614Z,8.18
2023-05-03T06:11:34.114Z,8.29
2023-05-03T06:15:03.144Z,8.39
2023-05-03T06:18:35.503Z,8.51
2023-05-03T06:22:02.968Z,8.62
2023-05-03T06:25:33.953Z,8.70
2023-05-03T06:29:01.142Z,8.81
2023-05-03T06:32:28.159Z,8.91
2023-05-03T06:35:56.991Z,9.02
2023-05-03T06:39:24.124Z,9.13
2023-05-03T06:42:50.894Z,9.24
2023-05-03T06:46:41.526Z,9.36
2023-05-03T06:50:09.974Z,9.46
2023-05-03T06:53:37.076Z,9.56
2023-05-03T06:57:04.589Z,9.67
2023-05-03T07:00:31.448Z,9.75
2023-05-03T07:03:57.922Z,9.84
2023-05-03T07:07:24.761Z,9.97
2023-05-03T07:10:51.438Z,10.08
2023-05-03T07:14:18.780Z,10.18
2023-05-03T07:17:45.392Z,10.25
2023-05-03T07:21:12.246Z,10.34
2023-05-03T07:24:39.013Z,10.45
2023-05-03T07:28:06.697Z,10.55
2023-05-03T07:31:33.943Z,10.64
2023-05-03T07:35:08.997Z,10.77
2023-05-03T07:38:36.638Z,10.92
2023-05-03T07:42:07.947Z,11.06
2023-05-03T07:45:34.909Z,11.18
2023-05-03T07:49:04.483Z,11.24
2023-05-03T07:52:34.522Z,11.32
2023-05-03T07:56:01.272Z,11.45
2023-05-03T07:59:29.688Z,11.48
2023-05-03T08:02:57.041Z,11.51
2023-05-03T08:06:26.495Z,11.59
2023-05-03T08:09:53.995Z,11.69
2023-05-03T08:13:22.853Z,11.75
2023-05-03T08:16:50.574Z,11.92
2023-05-03T08:20:17.845Z,12.06
2023-05-03T08:23:45.500Z,12.17
2023-05-03T08:27:12.763Z,12.25
2023-05-03T08:30:42.563Z,12.36
2023-05-03T08:34:13.988Z,12.46
2023-05-03T08:37:44.973Z,12.60
2023-05-03T08:41:23.229Z,12.80
2023-05-03T08:44:51.980Z,12.80
2023-05-03T08:48:19.167Z,12.76
2023-05-03T08:51:48.607Z,12.84
2023-05-03T08:55:17.386Z,12.93
2023-05-03T08:58:44.152Z,13.07
2023-05-03T09:02:14.033Z,13.16
2023-05-03T09:05:44.537Z,13.21
2023-05-03T09:09:17.005Z,13.18
2023-05-03T09:12:45.966Z,13.29
2023-05-03T09:16:13.333Z,13.45
2023-05-03T09:19:53.370Z,13.63
2023-05-03T09:23:31.770Z,13.82
2023-05-03T09:27:00.187Z,13.97
2023-05-03T09:30:31.641Z,14.08
2023-05-03T09:34:00.412Z,14.24
2023-05-03T09:37:39.834Z,14.36
2023-05-03T09:41:09.294Z,14.27
2023-05-03T09:44:49.080Z,14.18
2023-05-03T09:48:18.203Z,14.29
2023-05-03T09:51:45.674Z,14.43
2023-05-03T09:55:22.722Z,14.56
2023-05-03T09:58:50.195Z,14.72
2023-05-03T10:02:18.412Z,14.87
2023-05-03T10:05:51.624Z,15.09
2023-05-03T10:09:21.972Z,14.91
2023-05-03T10:12:54.060Z,14.73
2023-05-03T10:16:27.351Z,14.60
2023-05-03T10:20:03.707Z,14.74
2023-05-03T10:23:31.146Z,14.97
2023-05-03T10:26:59.807Z,15.00
2023-05-03T10:30:42.390Z,14.93
2023-05-03T10:34:23.251Z,14.96
